ADDS METAR Data INFO
IDs: Format: Raw Decoded Include TAF

Data at: 0044 UTC 22 Oct 2017

KFXY 220035Z AUTO 30006KT 10SM OVC026 13/12 A2980 RMK AO2 P0003
KFXY 220015Z AUTO 29007KT 10SM -RA SCT011 OVC022 14/13 A2978 RMK AO2 P0002
KFXY 212355Z AUTO 29011KT 5SM -RA SCT013 BKN024 OVC065 15/13 A2977 RMK AO2 P0010
KFXY 212335Z AUTO 25009G18KT 10SM RA SCT019 BKN043 OVC075 20/16 A2975 RMK AO2
KFXY 212315Z AUTO 16013KT 10SM SCT050 BKN060 OVC075 20/16 A2972 RMK AO2
KFXY 212255Z AUTO 16015G19KT 10SM BKN048 OVC060 20/16 A2972 RMK AO2
KFXY 212235Z AUTO 16016G20KT 10SM SCT044 OVC049 20/16 A2972 RMK AO2
KFXY 212215Z AUTO 17016G21KT 10SM BKN049 20/16 A2972 RMK AO2
KFXY 212155Z AUTO 17016G22KT 10SM SCT045 SCT070 20/16 A2971 RMK AO2
KFXY 212135Z AUTO 18020G26KT 10SM SCT025 SCT047 BKN070 20/16 A2972 RMK AO2
KFXY 212115Z AUTO 17020G26KT 10SM BKN025 BKN033 BKN070 20/16 A2972 RMK AO2
KFXY 212055Z AUTO 17019G24KT 10SM SCT025 SCT031 BKN060 20/16 A2971 RMK AO2
KFXY 212035Z AUTO 17016G24KT 10SM BKN028 BKN047 OVC060 20/16 A2972 RMK AO2
KFXY 212015Z AUTO 17015G21KT 10SM OVC026 20/16 A2972 RMK AO2
KFXY 211955Z AUTO 17015G23KT 10SM OVC026 19/16 A2973 RMK AO2
KFXY 211935Z AUTO 16016G22KT 10SM BKN024 OVC028 19/16 A2972 RMK AO2
KFXY 211915Z AUTO 17018G24KT 10SM SCT023 BKN029 OVC050 19/16 A2973 RMK AO2
KFXY 211855Z AUTO 17016G28KT 10SM SCT029 OVC050 19/16 A2973 RMK AO2
KFXY 211835Z AUTO 17020G25KT 10SM SCT018 SCT030 OVC050 18/16 A2972 RMK AO2
KFXY 211815Z AUTO 17018G25KT 7SM SCT015 BKN021 OVC038 17/16 A2973 RMK AO2
KFXY 211755Z AUTO 16016G23KT 7SM BKN018 OVC024 17/16 A2974 RMK AO2
KFXY 211735Z AUTO 16015G21KT 4SM -DZ SCT016 BKN020 OVC026 17/16 A2974 RMK AO2
KFXY 211715Z AUTO 16016G19KT 4SM -DZ BKN013 OVC019 17/16 A2974 RMK AO2
KFXY 211655Z AUTO 16015G22KT 4SM DZ BKN012 OVC017 17/16 A2974 RMK AO2
KFXY 211635Z AUTO 16017G20KT 3SM DZ SCT008 BKN014 OVC020 17/16 A2975 RMK AO2
KFXY 211615Z AUTO 16014G18KT 4SM -DZ BKN008 OVC014 16/16 A2974 RMK AO2
KFXY 211555Z AUTO 16015G22KT 2 1/2SM RA BKN008 OVC014 16/16 A2974 RMK AO2
KFXY 211535Z AUTO 16017G23KT 5SM BR BKN008 OVC013 16/16 A2974 RMK AO2
KFXY 211515Z AUTO 16016G23KT 4SM BR BKN008 BKN013 OVC030 16/15 A2973 RMK AO2
KFXY 211455Z AUTO 16019G26KT 10SM SCT008 OVC030 16/16 A2973 RMK AO2
KFXY 211435Z AUTO 17017G24KT 10SM OVC008 16/16 A2973 RMK AO2
KFXY 211415Z AUTO 16016G22KT 10SM BKN010 BKN016 OVC110 16/15 A2973 RMK AO2
KFXY 211355Z AUTO 16017G20KT 10SM -RA BKN018 BKN033 OVC110 16/15 A2973 RMK AO2 P0007
KFXY 211335Z AUTO 17016G22KT 7SM RA SCT020 BKN060 OVC090 15/15 A2975 RMK AO2 P0004
KFXY 211315Z AUTO 17016G23KT 7SM +RA SCT008 BKN026 OVC100 15/15 A2975 RMK AO2 P0001
KFXY 211255Z AUTO 16014G17KT 10SM -RA SCT008 BKN026 OVC100 15/15 A2974 RMK AO2 P0022
KFXY 211235Z AUTO 17017G23KT 4SM +RA SCT010 BKN050 OVC070 15/15 A2976 RMK AO2 P0015
KFXY 211215Z AUTO 16017KT 7SM RA SCT055 OVC070 15/14 A2974 RMK AO2 P0005
KFXY 211155Z AUTO 16015KT 7SM RA SCT055 BKN070 OVC100 15/14 A2973 RMK AO2 P0006
KFXY 211135Z AUTO 16012KT 10SM RA BKN019 OVC100 15/13 A2973 RMK AO2 P0002
KFXY 211115Z AUTO 16010KT 10SM -RA BKN021 OVC050 15/13 A2973 RMK AO2
KFXY 211055Z AUTO 17015G19KT 10SM -RA BKN023 OVC050 15/13 A2973 RMK AO2 P0001
KFXY 211035Z AUTO 16012G22KT 10SM -RA OVC025 15/13 A2973 RMK AO2
KFXY 211015Z AUTO 16013G19KT 10SM OVC027 16/12 A2972 RMK AO2
KFXY 210955Z AUTO 17014G22KT 10SM BKN027 OVC050 16/12 A2972 RMK AO2
KFXY 210935Z AUTO 16013G19KT 10SM SCT031 BKN055 16/12 A2973 RMK AO2
KFXY 210915Z AUTO 16013KT 10SM SCT031 16/11 A2973 RMK AO2
KFXY 210855Z AUTO 16014G20KT 10SM CLR 16/12 A2973 RMK AO2
KFXY 210835Z AUTO 17013G22KT 10SM CLR 16/11 A2973 RMK AO2
KFXY 210815Z AUTO 16012G18KT 10SM CLR 16/11 A2974 RMK AO2
KFXY 210755Z AUTO 16017G22KT 10SM CLR 16/11 A2975 RMK AO2
KFXY 210735Z AUTO 17016G23KT 10SM CLR 16/11 A2975 RMK AO2
KFXY 210715Z AUTO 17016G21KT 10SM CLR 16/11 A2976 RMK AO2
KFXY 210655Z AUTO 17016G22KT 10SM CLR 16/11 A2976 RMK AO2
KFXY 210635Z AUTO 17014KT 10SM CLR 16/11 A2977 RMK AO2
KFXY 210615Z AUTO 17015G22KT 10SM CLR 16/11 A2977 RMK AO2
KFXY 210555Z AUTO 17014G22KT 10SM CLR 16/11 A2977 RMK AO2
KFXY 210535Z AUTO 17015G24KT 10SM CLR 16/11 A2978 RMK AO2
KFXY 210515Z AUTO 17014G22KT 10SM CLR 17/11 A2977 RMK AO2
KFXY 210455Z AUTO 17018G24KT 10SM CLR 17/11 A2978 RMK AO2
KFXY 210435Z AUTO 17018G25KT 10SM CLR 17/11 A2978 RMK AO2
KFXY 210415Z AUTO 17016G22KT 10SM CLR 17/11 A2979 RMK AO2
KFXY 210355Z AUTO 17016G22KT 10SM CLR 17/11 A2979 RMK AO2
KFXY 210335Z AUTO 17018G24KT 10SM CLR 17/11 A2979 RMK AO2
KFXY 210315Z AUTO 17018G24KT 10SM SCT110 18/11 A2979 RMK AO2
KFXY 210255Z AUTO 17020G25KT 10SM SCT100 SCT120 18/11 A2978 RMK AO2
KFXY 210235Z AUTO 17016G24KT 10SM SCT120 18/11 A2978 RMK AO2
KFXY 210215Z AUTO 17016G22KT 10SM CLR 18/10 A2978 RMK AO2
KFXY 210155Z AUTO 16015G20KT 10SM CLR 17/10 A2978 RMK AO2
KFXY 210135Z AUTO 17014G21KT 10SM CLR 17/10 A2979 RMK AO2
KFXY 210115Z AUTO 16012G20KT 10SM CLR 18/10 A2979 RMK AO2
KFXY 210055Z AUTO 17015G22KT 10SM CLR 18/09 A2980 RMK AO2
KFXY 210035Z AUTO 16016G20KT 10SM CLR 18/09 A2980 RMK AO2
KFXY 210015Z AUTO 17013KT 10SM CLR 19/09 A2980 RMK AO2
KFXY 202355Z AUTO 16015G19KT 10SM CLR 20/09 A2979 RMK AO2
KFXY 202335Z AUTO 17015KT 10SM CLR 20/09 A2979 RMK AO2
KFXY 202315Z AUTO 17018G24KT 10SM CLR 21/09 A2979 RMK AO2
KFXY 202255Z AUTO 17014G19KT 10SM CLR 21/10 A2979 RMK AO2
KFXY 202235Z AUTO 17014G25KT 10SM CLR 21/08 A2979 RMK AO2
KFXY 202215Z AUTO 17014G22KT 10SM CLR 22/09 A2980 RMK AO2
KFXY 202155Z AUTO 17021G28KT 10SM CLR 22/07 A2980 RMK AO2
KFXY 202135Z AUTO 17019G26KT 10SM CLR 23/08 A2981 RMK AO2
KFXY 202115Z AUTO 17018G27KT 10SM CLR 23/08 A2981 RMK AO2
KFXY 202055Z AUTO 17017G25KT 10SM CLR 23/09 A2981 RMK AO2
KFXY 202035Z AUTO 17019G26KT 10SM CLR 23/09 A2982 RMK AO2
KFXY 202015Z AUTO 17018G27KT 10SM CLR 23/10 A2983 RMK AO2
KFXY 201955Z AUTO 17017G24KT 10SM CLR 23/11 A2984 RMK AO2
KFXY 201935Z AUTO 18015G24KT 10SM CLR 23/11 A2984 RMK AO2
KFXY 201915Z AUTO 19016G22KT 10SM CLR 22/10 A2986 RMK AO2
KFXY 201855Z AUTO 19016G27KT 10SM CLR 22/11 A2986 RMK AO2
KFXY 201835Z AUTO 19021G27KT 10SM CLR 23/11 A2987 RMK AO2
KFXY 201815Z AUTO 19014G24KT 10SM CLR 23/11 A2989 RMK AO2
KFXY 201755Z AUTO 18015G20KT 10SM CLR 21/11 A2990 RMK AO2
KFXY 201735Z AUTO 18015G21KT 10SM CLR 22/11 A2991 RMK AO2
KFXY 201715Z AUTO 19017G21KT 10SM CLR 21/11 A2992 RMK AO2
KFXY 201655Z AUTO 19017G21KT 10SM CLR 21/11 A2993 RMK AO2
KFXY 201635Z AUTO 19014G22KT 10SM CLR 20/11 A2994 RMK AO2
KFXY 201615Z AUTO 20016G23KT 10SM CLR 20/11 A2994 RMK AO2
KFXY 201555Z AUTO 20014G20KT 10SM CLR 19/11 A2996 RMK AO2
KFXY 201535Z AUTO 19016G23KT 10SM CLR 19/11 A2996 RMK AO2
KFXY 201515Z AUTO 20014G21KT 10SM CLR 18/11 A2996 RMK AO2
KFXY 201455Z AUTO 20013G19KT 10SM CLR 17/11 A2997 RMK AO2
KFXY 201435Z AUTO 20011G17KT 10SM CLR 16/11 A2997 RMK AO2
KFXY 201415Z AUTO 19010KT 10SM CLR 16/11 A2998 RMK AO2
KFXY 201355Z AUTO 20008KT 10SM CLR 14/11 A2998 RMK AO2
KFXY 201335Z AUTO 19009KT 10SM CLR 13/11 A2997 RMK AO2
KFXY 201315Z AUTO 18009KT 10SM CLR 12/10 A2998 RMK AO2
KFXY 201255Z AUTO 18009KT 10SM CLR 12/10 A2998 RMK AO2